Alvada, Ohio
Current Conditions -  °F | °C
As of 6:53 PM on Friday 24 Oct 2014 (Local Time) from KFDY Reporting Station
Overcast Overcast  
Wind Chill: 60°   Ceiling: 4200
Heat Index: 60°   Visibility: 9mi
Dew Point: 46°   Wind: 5mph
Humidity: 60%   Direction: 260°W
Pressure: 30"   Gusts: NA
Location:  41.05°N, 83.4°W
Report Text: KFDY 242253Z AUTO 26004KT 9SM OVC042 16/08 A3000 RMK AO2 SLP157 T01560078
Loading
Personal Weather Stations






























Interactive Weather Map
Tropical Storm Tracking
New forecast layout! Learn more

10-Day Weather Forecast

Advertisements
Track Severe Weather on mobile